createdAt,value
2022-11-14T00:00:00.999Z,99.09
2022-11-14T00:02:27.482Z,99.27
2022-11-14T00:04:54.156Z,100.00
2022-11-14T00:07:20.611Z,99.68
2022-11-14T00:09:47.097Z,99.94
2022-11-14T00:12:13.518Z,99.97
2022-11-14T00:14:39.900Z,100.00
2022-11-14T00:17:06.289Z,100.00
2022-11-14T00:19:32.883Z,99.95
2022-11-14T00:22:00.364Z,100.00
2022-11-14T00:24:26.778Z,99.72
2022-11-14T00:26:53.155Z,99.08
2022-11-14T00:29:19.532Z,99.70
2022-11-14T00:31:45.900Z,100.00
2022-11-14T00:34:12.342Z,100.00
2022-11-14T00:36:38.736Z,100.00
2022-11-14T00:39:05.101Z,100.00
2022-11-14T00:41:31.495Z,100.00
2022-11-14T00:43:57.886Z,100.00
2022-11-14T00:46:24.281Z,100.00
2022-11-14T00:48:50.723Z,100.00
2022-11-14T00:51:17.094Z,100.00
2022-11-14T00:53:43.470Z,100.00
2022-11-14T00:56:10.152Z,100.00
2022-11-14T00:58:36.510Z,100.00
2022-11-14T01:01:02.961Z,100.00
2022-11-14T01:03:29.425Z,100.00
2022-11-14T01:05:55.865Z,100.00
2022-11-14T01:08:22.296Z,100.00
2022-11-14T01:10:50.449Z,100.00
2022-11-14T01:13:17.906Z,100.00
2022-11-14T01:15:45.357Z,100.00
2022-11-14T01:18:14.016Z,100.00
2022-11-14T01:20:41.122Z,100.00
2022-11-14T01:23:08.088Z,100.00
2022-11-14T01:25:35.573Z,100.00
2022-11-14T01:28:01.991Z,100.00
2022-11-14T01:30:28.372Z,100.00
2022-11-14T01:32:54.756Z,100.00
2022-11-14T01:35:21.153Z,100.00
2022-11-14T01:37:47.531Z,100.00
2022-11-14T01:40:13.902Z,99.82
2022-11-14T01:42:40.308Z,100.00
2022-11-14T01:45:25.327Z,100.00
2022-11-14T01:47:51.771Z,99.99
2022-11-14T01:50:18.208Z,100.00
2022-11-14T01:52:45.869Z,100.00
2022-11-14T01:55:12.269Z,99.81
2022-11-14T01:57:40.946Z,100.00
2022-11-14T02:00:09.120Z,99.72
2022-11-14T02:02:36.073Z,98.69
2022-11-14T02:05:13.119Z,99.25
2022-11-14T02:07:40.741Z,99.43
2022-11-14T02:10:09.216Z,99.28
2022-11-14T02:12:36.246Z,99.17
2022-11-14T02:15:03.201Z,99.93
2022-11-14T02:17:31.062Z,100.00
2022-11-14T02:20:05.377Z,99.42
2022-11-14T02:22:32.221Z,99.61
2022-11-14T02:24:58.589Z,99.64
2022-11-14T02:27:25.018Z,99.61
2022-11-14T02:29:51.409Z,100.00
2022-11-14T02:32:17.809Z,100.00
2022-11-14T02:34:44.195Z,100.00
2022-11-14T02:37:10.628Z,100.00
2022-11-14T02:39:37.191Z,100.00
2022-11-14T02:42:03.636Z,100.00
2022-11-14T02:44:30.005Z,99.94
2022-11-14T02:46:56.437Z,100.00
2022-11-14T02:49:22.815Z,99.97
2022-11-14T02:51:49.197Z,100.00
2022-11-14T02:54:15.612Z,100.00
2022-11-14T02:56:42.140Z,100.00
2022-11-14T02:59:08.539Z,100.00
2022-11-14T03:01:35.024Z,100.00
2022-11-14T03:04:01.573Z,100.00
2022-11-14T03:06:27.935Z,100.00
2022-11-14T03:08:54.296Z,100.00
2022-11-14T03:11:20.796Z,100.00
2022-11-14T03:13:47.184Z,100.00
2022-11-14T03:16:14.223Z,100.00
2022-11-14T03:18:40.909Z,100.00
2022-11-14T03:21:11.925Z,100.00
2022-11-14T03:23:38.395Z,100.00
2022-11-14T03:26:06.292Z,100.00
2022-11-14T03:28:32.964Z,100.00
2022-11-14T03:30:59.372Z,100.00
2022-11-14T03:33:25.798Z,100.00
2022-11-14T03:35:52.630Z,100.00
2022-11-14T03:38:19.277Z,100.00
2022-11-14T03:40:45.665Z,100.00
2022-11-14T03:43:12.540Z,100.00
2022-11-14T03:45:39.121Z,100.00
2022-11-14T03:48:06.211Z,99.78
2022-11-14T03:50:32.819Z,99.95
2022-11-14T03:52:59.201Z,99.92
2022-11-14T03:55:25.615Z,99.57
2022-11-14T03:57:52.046Z,99.37
2022-11-14T04:00:18.566Z,99.85
2022-11-14T04:02:44.959Z,100.00
2022-11-14T04:05:11.347Z,100.00
2022-11-14T04:07:37.723Z,100.00
2022-11-14T04:10:04.298Z,100.00
2022-11-14T04:12:30.669Z,100.00
2022-11-14T04:14:57.159Z,99.84
2022-11-14T04:17:23.612Z,99.88
2022-11-14T04:19:50.487Z,100.00
2022-11-14T04:22:16.885Z,100.00
2022-11-14T04:24:43.257Z,100.00
2022-11-14T04:27:09.740Z,100.00
2022-11-14T04:29:36.415Z,100.00
2022-11-14T04:32:02.799Z,99.99
2022-11-14T04:34:29.169Z,99.46
2022-11-14T04:36:55.575Z,99.70
2022-11-14T04:39:21.964Z,99.74
2022-11-14T04:41:48.351Z,99.97
2022-11-14T04:44:14.753Z,100.00
2022-11-14T04:46:41.123Z,100.00
2022-11-14T04:49:07.532Z,100.00
2022-11-14T04:51:33.901Z,100.00
2022-11-14T04:54:00.293Z,100.00
2022-11-14T04:56:26.728Z,100.00
2022-11-14T04:58:53.142Z,100.00
2022-11-14T05:01:19.582Z,100.00
2022-11-14T05:03:46.064Z,100.00
2022-11-14T05:06:12.455Z,99.99
2022-11-14T05:08:38.899Z,100.00
2022-11-14T05:11:05.347Z,100.00
2022-11-14T05:13:31.783Z,100.00
2022-11-14T05:15:59.298Z,100.00
2022-11-14T05:18:25.713Z,100.00
2022-11-14T05:20:52.102Z,100.00
2022-11-14T05:23:20.381Z,100.00
2022-11-14T05:25:46.983Z,100.00
2022-11-14T05:28:13.904Z,100.00
2022-11-14T05:30:40.268Z,100.00
2022-11-14T05:33:06.664Z,100.00
2022-11-14T05:35:33.070Z,100.00
2022-11-14T05:38:00.758Z,100.00
2022-11-14T05:40:27.141Z,100.00
2022-11-14T05:42:55.089Z,100.00
2022-11-14T05:45:21.503Z,100.00
2022-11-14T05:47:47.869Z,100.00
2022-11-14T05:50:14.296Z,100.00
2022-11-14T05:52:40.690Z,100.00
2022-11-14T05:55:07.328Z,100.00
2022-11-14T05:57:33.722Z,100.00
2022-11-14T06:00:00.228Z,100.00
2022-11-14T06:02:26.635Z,100.00
2022-11-14T06:04:53.062Z,100.00
2022-11-14T06:07:20.534Z,100.00
2022-11-14T06:09:47.062Z,100.00
2022-11-14T06:12:13.487Z,100.00
2022-11-14T06:14:39.845Z,100.00
2022-11-14T06:17:06.229Z,100.00
2022-11-14T06:19:32.590Z,100.00
2022-11-14T06:21:59.030Z,100.00
2022-11-14T06:24:25.498Z,100.00
2022-11-14T06:26:51.854Z,100.00
2022-11-14T06:29:18.260Z,100.00
2022-11-14T06:31:44.654Z,100.00
2022-11-14T06:34:12.018Z,100.00
2022-11-14T06:36:38.603Z,100.00
2022-11-14T06:39:04.990Z,100.00
2022-11-14T06:41:31.434Z,100.00
2022-11-14T06:43:57.791Z,100.00
2022-11-14T06:46:24.213Z,100.00
2022-11-14T06:48:51.091Z,100.00
2022-11-14T06:51:17.608Z,100.00
2022-11-14T06:53:44.621Z,100.00
2022-11-14T06:56:12.306Z,100.00
2022-11-14T06:58:40.691Z,100.00
2022-11-14T07:01:08.336Z,100.00
2022-11-14T07:03:34.981Z,100.00
2022-11-14T07:06:01.961Z,100.00
2022-11-14T07:08:28.715Z,100.00
2022-11-14T07:11:00.479Z,100.00
2022-11-14T07:13:26.927Z,100.00
2022-11-14T07:15:53.912Z,100.00
2022-11-14T07:18:20.453Z,100.00
2022-11-14T07:20:47.457Z,100.00
2022-11-14T07:23:14.849Z,100.00
2022-11-14T07:25:41.489Z,100.00
2022-11-14T07:28:08.176Z,100.00
2022-11-14T07:30:34.957Z,100.00
2022-11-14T07:33:01.589Z,100.00
2022-11-14T07:35:27.977Z,100.00
2022-11-14T07:38:00.631Z,100.00
2022-11-14T07:40:27.041Z,100.00
2022-11-14T07:42:57.495Z,100.00
2022-11-14T07:45:23.900Z,100.00
2022-11-14T07:47:50.270Z,100.00
2022-11-14T07:50:20.356Z,100.00
2022-11-14T07:52:50.850Z,100.00
2022-11-14T07:55:17.234Z,100.00
2022-11-14T07:57:48.815Z,100.00
2022-11-14T08:00:17.050Z,100.00
2022-11-14T08:02:43.449Z,100.00
2022-11-14T08:05:09.790Z,100.00
2022-11-14T08:07:36.187Z,100.00
2022-11-14T08:10:02.770Z,100.00
2022-11-14T08:12:29.157Z,100.00
2022-11-14T08:14:55.522Z,100.00
2022-11-14T08:17:22.836Z,100.00
2022-11-14T08:19:49.258Z,100.00
2022-11-14T08:22:15.620Z,100.00
2022-11-14T08:24:42.011Z,100.00
2022-11-14T08:27:08.391Z,100.00
2022-11-14T08:29:34.799Z,100.00
2022-11-14T08:32:01.150Z,100.00
2022-11-14T08:34:29.173Z,100.00
2022-11-14T08:36:57.158Z,100.00
2022-11-14T08:39:23.808Z,100.00
2022-11-14T08:41:50.210Z,100.00
2022-11-14T08:44:16.582Z,100.00
2022-11-14T08:46:42.948Z,100.00
2022-11-14T08:49:09.371Z,100.00
2022-11-14T08:51:36.601Z,100.00
2022-11-14T08:54:03.392Z,100.00
2022-11-14T08:56:29.798Z,100.00
2022-11-14T08:58:56.182Z,100.00
2022-11-14T09:01:22.568Z,100.00
2022-11-14T09:03:49.089Z,100.00
2022-11-14T09:06:15.686Z,100.00
2022-11-14T09:08:42.107Z,100.00
2022-11-14T09:11:10.114Z,100.00
2022-11-14T09:13:36.725Z,100.00
2022-11-14T09:16:03.144Z,100.00
2022-11-14T09:18:30.161Z,100.00
2022-11-14T09:21:00.953Z,100.00
2022-11-14T09:23:27.505Z,100.00
2022-11-14T09:25:54.963Z,100.00
2022-11-14T09:28:21.401Z,100.00
2022-11-14T09:30:47.791Z,100.00
2022-11-14T09:33:14.361Z,100.00
2022-11-14T09:35:41.303Z,100.00
2022-11-14T09:38:09.909Z,100.00
2022-11-14T09:40:47.046Z,100.00
2022-11-14T09:43:36.632Z,100.00
2022-11-14T09:46:03.475Z,100.00
2022-11-14T09:48:31.905Z,100.00
2022-11-14T09:51:04.426Z,100.00
2022-11-14T09:53:33.169Z,100.00
2022-11-14T09:55:59.773Z,100.00
2022-11-14T09:58:26.676Z,100.00
2022-11-14T10:01:22.505Z,100.00
2022-11-14T10:03:55.116Z,100.00
2022-11-14T10:06:24.642Z,100.00
2022-11-14T10:09:04.721Z,100.00
2022-11-14T10:11:46.861Z,100.00
2022-11-14T10:14:16.280Z,100.00
2022-11-14T10:16:42.724Z,100.00
2022-11-14T10:19:14.879Z,100.00
2022-11-14T10:21:54.708Z,100.00
2022-11-14T10:24:31.358Z,100.00
2022-11-14T10:27:04.748Z,100.00
2022-11-14T10:29:43.376Z,100.00
2022-11-14T10:32:12.580Z,100.00
2022-11-14T10:34:45.211Z,100.00
2022-11-14T10:37:17.697Z,100.00
2022-11-14T10:39:46.724Z,100.00
2022-11-14T10:42:16.172Z,100.00
2022-11-14T10:44:47.245Z,100.00
2022-11-14T10:47:16.011Z,100.00
2022-11-14T10:49:44.450Z,100.00
2022-11-14T10:52:14.466Z,100.00
2022-11-14T10:54:43.891Z,100.00
2022-11-14T10:57:20.825Z,100.00
2022-11-14T10:59:47.528Z,100.00
2022-11-14T11:02:14.277Z,100.00
2022-11-14T11:04:41.701Z,100.00
2022-11-14T11:07:08.130Z,100.00
2022-11-14T11:09:57.934Z,100.00
2022-11-14T11:12:24.289Z,100.00
2022-11-14T11:15:08.203Z,100.00
2022-11-14T11:17:38.783Z,100.00
2022-11-14T11:20:27.066Z,100.00
2022-11-14T11:23:25.841Z,100.00
2022-11-14T11:26:05.975Z,100.00
2022-11-14T11:28:33.810Z,100.00
2022-11-14T11:31:00.778Z,100.00
2022-11-14T11:33:28.750Z,100.00
2022-11-14T11:35:57.593Z,100.00
2022-11-14T11:38:26.114Z,100.00
2022-11-14T11:40:54.635Z,100.00
2022-11-14T11:43:43.260Z,100.00
2022-11-14T11:46:12.958Z,100.00
2022-11-14T11:48:40.069Z,100.00
2022-11-14T11:51:10.601Z,100.00
2022-11-14T11:53:39.801Z,100.00
2022-11-14T11:56:17.882Z,100.00
2022-11-14T11:58:46.851Z,100.00
2022-11-14T12:01:14.262Z,100.00
2022-11-14T12:03:46.897Z,100.00
2022-11-14T12:06:24.685Z,100.00
2022-11-14T12:08:57.095Z,100.00
2022-11-14T12:11:26.223Z,100.00
2022-11-14T12:14:04.670Z,100.00
2022-11-14T12:16:57.101Z,100.00
2022-11-14T12:19:23.580Z,100.00
2022-11-14T12:21:54.229Z,100.00
2022-11-14T12:24:34.193Z,100.00
2022-11-14T12:27:19.251Z,100.00
2022-11-14T12:29:48.884Z,100.00
2022-11-14T12:32:21.504Z,100.00
2022-11-14T12:34:49.106Z,100.00
2022-11-14T12:37:18.806Z,100.00
2022-11-14T12:39:55.073Z,100.00
2022-11-14T12:42:21.981Z,100.00
2022-11-14T12:44:48.525Z,100.00
2022-11-14T12:47:16.729Z,100.00
2022-11-14T12:49:49.775Z,100.00
2022-11-14T12:52:34.594Z,100.00
2022-11-14T12:55:00.972Z,100.00
2022-11-14T12:57:47.591Z,100.00
2022-11-14T13:00:14.141Z,100.00
2022-11-14T13:02:52.675Z,100.00
2022-11-14T13:05:23.536Z,100.00
2022-11-14T13:07:50.011Z,100.00
2022-11-14T13:10:30.640Z,100.00
2022-11-14T13:13:18.020Z,100.00
2022-11-14T13:16:07.418Z,100.00
2022-11-14T13:18:52.358Z,100.00
2022-11-14T13:21:45.066Z,100.00
2022-11-14T13:24:18.857Z,100.00
2022-11-14T13:26:52.795Z,100.00
2022-11-14T13:29:37.945Z,100.00
2022-11-14T13:32:04.504Z,100.00
2022-11-14T13:34:43.045Z,100.00
2022-11-14T13:37:42.056Z,100.00
2022-11-14T13:40:20.790Z,100.00
2022-11-14T13:42:47.144Z,100.00
2022-11-14T13:45:32.054Z,100.00
2022-11-14T13:47:58.393Z,100.00
2022-11-14T13:50:28.383Z,100.00
2022-11-14T13:52:55.223Z,100.00
2022-11-14T13:55:22.728Z,100.00
2022-11-14T13:58:04.589Z,100.00
2022-11-14T14:00:46.083Z,99.71
2022-11-14T14:03:31.916Z,100.00
2022-11-14T14:06:06.037Z,99.75
2022-11-14T14:08:32.544Z,99.81
2022-11-14T14:11:01.972Z,99.39
2022-11-14T14:13:52.426Z,98.97
2022-11-14T14:16:21.398Z,98.37
2022-11-14T14:19:06.128Z,98.64
2022-11-14T14:21:38.310Z,98.84
2022-11-14T14:24:04.765Z,98.91
2022-11-14T14:26:46.204Z,99.01
2022-11-14T14:29:22.824Z,98.82
2022-11-14T14:31:49.176Z,98.78
2022-11-14T14:34:42.026Z,99.13
2022-11-14T14:37:17.584Z,99.06
2022-11-14T14:39:55.538Z,98.24
2022-11-14T14:42:21.944Z,98.30
2022-11-14T14:44:48.711Z,98.72
2022-11-14T14:47:36.485Z,98.32
2022-11-14T14:50:04.356Z,99.13
2022-11-14T14:52:32.098Z,98.51
2022-11-14T14:54:58.744Z,99.13
2022-11-14T14:57:25.522Z,98.82
2022-11-14T15:00:02.438Z,98.41
2022-11-14T15:02:29.512Z,98.20
2022-11-14T15:04:57.217Z,97.70
2022-11-14T15:07:24.995Z,98.09
2022-11-14T15:09:55.246Z,97.82
2022-11-14T15:12:23.700Z,97.42
2022-11-14T15:14:50.798Z,97.23
2022-11-14T15:17:17.372Z,96.95
2022-11-14T15:19:45.120Z,96.88
2022-11-14T15:22:14.562Z,96.34
2022-11-14T15:24:41.160Z,96.52
2022-11-14T15:27:18.068Z,96.66
2022-11-14T15:29:48.441Z,96.11
2022-11-14T15:32:18.670Z,96.37
2022-11-14T15:35:04.993Z,96.44
2022-11-14T15:37:33.187Z,96.28
2022-11-14T15:40:28.682Z,96.50
2022-11-14T15:42:55.362Z,96.11
2022-11-14T15:45:25.968Z,95.95
2022-11-14T15:47:59.343Z,96.28
2022-11-14T15:50:35.271Z,96.56
2022-11-14T15:53:06.408Z,96.30
2022-11-14T15:55:32.851Z,96.44
2022-11-14T15:58:21.478Z,96.41
2022-11-14T16:00:47.457Z,96.39
2022-11-14T16:03:18.482Z,95.96
2022-11-14T16:05:46.174Z,96.34
2022-11-14T16:08:13.012Z,96.00
2022-11-14T16:10:39.461Z,95.94
2022-11-14T16:13:06.276Z,95.96
2022-11-14T16:15:32.662Z,95.96
2022-11-14T16:17:59.054Z,96.09
2022-11-14T16:20:26.878Z,96.27
2022-11-14T16:22:55.063Z,96.04
2022-11-14T16:25:26.428Z,96.20
2022-11-14T16:27:53.066Z,96.28
2022-11-14T16:30:20.401Z,96.25
2022-11-14T16:32:48.231Z,96.46
2022-11-14T16:35:16.019Z,95.92
2022-11-14T16:37:42.639Z,96.03
2022-11-14T16:40:26.919Z,95.55
2022-11-14T16:43:03.420Z,95.61
2022-11-14T16:45:29.844Z,96.03
2022-11-14T16:47:56.239Z,95.70
2022-11-14T16:50:22.606Z,95.52
2022-11-14T16:52:49.283Z,95.75
2022-11-14T16:55:15.807Z,95.75
2022-11-14T16:57:42.282Z,95.51
2022-11-14T17:00:10.747Z,95.56
2022-11-14T17:02:37.227Z,95.91
2022-11-14T17:05:03.817Z,95.80
2022-11-14T17:07:32.732Z,95.44
2022-11-14T17:10:00.480Z,95.37
2022-11-14T17:12:27.370Z,95.95
2022-11-14T17:14:54.726Z,95.67
2022-11-14T17:17:21.290Z,95.64
2022-11-14T17:19:47.717Z,95.53
2022-11-14T17:22:14.797Z,95.51
2022-11-14T17:24:42.061Z,95.85
2022-11-14T17:27:08.711Z,95.46
2022-11-14T17:29:35.179Z,95.37
2022-11-14T17:32:01.832Z,95.79
2022-11-14T17:34:28.247Z,95.66
2022-11-14T17:36:54.600Z,95.45
2022-11-14T17:39:21.057Z,95.74
2022-11-14T17:41:47.510Z,95.57
2022-11-14T17:44:14.154Z,95.58
2022-11-14T17:46:40.600Z,95.82
2022-11-14T17:49:07.132Z,95.91
2022-11-14T17:51:33.555Z,95.56
2022-11-14T17:53:59.940Z,96.18
2022-11-14T17:56:26.822Z,96.35
2022-11-14T17:58:53.667Z,95.58
2022-11-14T18:01:24.343Z,95.12
2022-11-14T18:03:50.969Z,95.48
2022-11-14T18:06:19.303Z,95.24
2022-11-14T18:08:46.154Z,95.73
2022-11-14T18:11:13.446Z,95.43
2022-11-14T18:13:40.528Z,95.10
2022-11-14T18:16:08.890Z,95.12
2022-11-14T18:18:36.088Z,95.32
2022-11-14T18:21:09.505Z,95.01
2022-11-14T18:23:36.098Z,95.72
2022-11-14T18:26:08.449Z,95.57
2022-11-14T18:28:34.886Z,95.40
2022-11-14T18:31:03.414Z,95.12
2022-11-14T18:33:29.920Z,95.11
2022-11-14T18:35:57.246Z,94.99
2022-11-14T18:38:23.726Z,94.82
2022-11-14T18:40:56.885Z,95.10
2022-11-14T18:43:23.877Z,95.34
2022-11-14T18:45:50.284Z,95.46
2022-11-14T18:48:16.720Z,95.17
2022-11-14T18:50:43.082Z,94.87
2022-11-14T18:53:10.211Z,94.74
2022-11-14T18:55:40.372Z,95.00
2022-11-14T18:58:06.960Z,95.20
2022-11-14T19:00:33.454Z,95.32
2022-11-14T19:03:04.804Z,95.29
2022-11-14T19:05:35.134Z,95.25
2022-11-14T19:08:01.555Z,95.49
2022-11-14T19:10:28.021Z,95.97
2022-11-14T19:12:54.399Z,95.63
2022-11-14T19:15:20.834Z,96.11
2022-11-14T19:17:47.539Z,96.10
2022-11-14T19:20:14.917Z,95.59
2022-11-14T19:22:41.409Z,95.77
2022-11-14T19:25:09.119Z,95.87
2022-11-14T19:27:35.689Z,95.84
2022-11-14T19:30:02.139Z,95.79
2022-11-14T19:32:28.531Z,95.77
2022-11-14T19:34:54.933Z,95.93
2022-11-14T19:37:21.302Z,96.30
2022-11-14T19:39:47.757Z,96.52
2022-11-14T19:42:14.183Z,96.28
2022-11-14T19:44:40.818Z,96.39
2022-11-14T19:47:07.191Z,96.81
2022-11-14T19:49:33.644Z,97.00
2022-11-14T19:52:00.020Z,97.08
2022-11-14T19:54:26.391Z,97.33
2022-11-14T19:56:52.806Z,96.79
2022-11-14T19:59:24.223Z,97.13
2022-11-14T20:01:55.413Z,97.48
2022-11-14T20:04:22.250Z,96.75
2022-11-14T20:06:48.678Z,97.43
2022-11-14T20:09:16.521Z,97.11
2022-11-14T20:11:42.938Z,97.56
2022-11-14T20:14:10.741Z,98.06
2022-11-14T20:16:37.316Z,98.28
2022-11-14T20:19:03.791Z,98.36
2022-11-14T20:21:31.482Z,98.14
2022-11-14T20:23:58.436Z,98.45
2022-11-14T20:26:25.257Z,99.00
2022-11-14T20:28:53.891Z,99.04
2022-11-14T20:31:24.653Z,98.93
2022-11-14T20:33:51.732Z,98.12
2022-11-14T20:36:19.821Z,98.54
2022-11-14T20:38:47.448Z,98.57
2022-11-14T20:41:14.232Z,98.22
2022-11-14T20:43:40.753Z,99.01
2022-11-14T20:46:09.532Z,98.92
2022-11-14T20:48:35.935Z,99.14
2022-11-14T20:51:02.650Z,99.59
2022-11-14T20:53:29.920Z,99.74
2022-11-14T20:55:56.496Z,99.71
2022-11-14T20:58:22.931Z,99.92
2022-11-14T21:00:49.785Z,99.76
2022-11-14T21:03:16.630Z,100.00
2022-11-14T21:05:43.000Z,100.00
2022-11-14T21:08:09.390Z,100.00
2022-11-14T21:10:47.882Z,99.58
2022-11-14T21:13:34.265Z,99.45
2022-11-14T21:16:01.529Z,100.00
2022-11-14T21:18:28.500Z,99.73
2022-11-14T21:21:03.083Z,99.23
2022-11-14T21:23:29.688Z,99.49
2022-11-14T21:26:06.896Z,100.00
2022-11-14T21:28:34.387Z,99.88
2022-11-14T21:31:01.104Z,99.78
2022-11-14T21:33:28.892Z,100.00
2022-11-14T21:35:57.079Z,100.00
2022-11-14T21:38:23.895Z,100.00
2022-11-14T21:40:54.358Z,100.00
2022-11-14T21:43:21.247Z,100.00
2022-11-14T21:45:58.747Z,100.00
2022-11-14T21:48:26.184Z,100.00
2022-11-14T21:50:52.701Z,100.00
2022-11-14T21:53:19.117Z,100.00
2022-11-14T21:55:45.945Z,100.00
2022-11-14T21:58:13.077Z,100.00
2022-11-14T22:00:40.207Z,100.00
2022-11-14T22:03:25.058Z,100.00
2022-11-14T22:05:57.862Z,100.00
2022-11-14T22:08:24.389Z,100.00
2022-11-14T22:10:50.796Z,100.00
2022-11-14T22:13:17.170Z,100.00
2022-11-14T22:15:43.601Z,99.80
2022-11-14T22:18:10.053Z,100.00
2022-11-14T22:20:36.447Z,100.00
2022-11-14T22:23:02.866Z,100.00
2022-11-14T22:25:29.254Z,100.00
2022-11-14T22:27:55.627Z,100.00
2022-11-14T22:30:22.000Z,100.00
2022-11-14T22:32:48.392Z,100.00
2022-11-14T22:35:14.825Z,100.00
2022-11-14T22:37:41.194Z,100.00
2022-11-14T22:40:08.004Z,100.00
2022-11-14T22:42:34.465Z,100.00
2022-11-14T22:45:00.898Z,100.00
2022-11-14T22:47:27.317Z,100.00
2022-11-14T22:49:53.709Z,100.00
2022-11-14T22:52:20.075Z,100.00
2022-11-14T22:54:46.464Z,100.00
2022-11-14T22:57:12.861Z,100.00
2022-11-14T22:59:39.274Z,100.00
2022-11-14T23:02:05.658Z,100.00
2022-11-14T23:04:32.048Z,100.00
2022-11-14T23:06:58.499Z,100.00
2022-11-14T23:09:24.930Z,100.00
2022-11-14T23:11:51.290Z,100.00
2022-11-14T23:14:17.832Z,100.00
2022-11-14T23:16:44.207Z,100.00
2022-11-14T23:19:10.586Z,100.00
2022-11-14T23:21:37.987Z,100.00
2022-11-14T23:24:06.450Z,100.00
2022-11-14T23:26:33.043Z,100.00
2022-11-14T23:28:59.573Z,100.00
2022-11-14T23:31:26.022Z,100.00
2022-11-14T23:33:53.509Z,100.00
2022-11-14T23:36:19.872Z,100.00
2022-11-14T23:38:46.260Z,100.00
2022-11-14T23:41:20.329Z,100.00
2022-11-14T23:43:47.275Z,100.00
2022-11-14T23:46:13.894Z,100.00
2022-11-14T23:48:40.317Z,100.00
2022-11-14T23:51:07.084Z,100.00
2022-11-14T23:53:33.725Z,100.00
2022-11-14T23:56:01.040Z,100.00
2022-11-14T23:58:28.283Z,100.00
